sensor_id;sensor_type;location;lat;lon;timestamp;P1;durP1;ratioP1;P2;durP2;ratioP2
4527;SDS011;62320;51.520;6.818;2022-08-21T00:00:34;6.57;;;4.88;;
4527;SDS011;62320;51.520;6.818;2022-08-21T00:05:46;8.25;;;4.97;;
4527;SDS011;62320;51.520;6.818;2022-08-21T00:10:50;10.95;;;5.30;;
4527;SDS011;62320;51.520;6.818;2022-08-21T00:15:52;7.53;;;5.05;;
4527;SDS011;62320;51.520;6.818;2022-08-21T00:20:53;7.80;;;4.85;;
4527;SDS011;62320;51.520;6.818;2022-08-21T00:25:55;8.30;;;5.10;;
4527;SDS011;62320;51.520;6.818;2022-08-21T00:30:56;8.25;;;4.82;;
4527;SDS011;62320;51.520;6.818;2022-08-21T00:35:58;8.30;;;4.97;;
4527;SDS011;62320;51.520;6.818;2022-08-21T00:41:01;7.82;;;4.88;;
4527;SDS011;62320;51.520;6.818;2022-08-21T00:46:24;10.18;;;5.30;;
4527;SDS011;62320;51.520;6.818;2022-08-21T00:51:32;6.82;;;4.82;;
4527;SDS011;62320;51.520;6.818;2022-08-21T00:56:39;6.68;;;5.10;;
4527;SDS011;62320;51.520;6.818;2022-08-21T01:01:43;7.35;;;5.00;;
4527;SDS011;62320;51.520;6.818;2022-08-21T01:06:45;7.85;;;5.50;;
4527;SDS011;62320;51.520;6.818;2022-08-21T01:11:46;7.35;;;4.93;;
4527;SDS011;62320;51.520;6.818;2022-08-21T01:16:50;7.53;;;5.18;;
4527;SDS011;62320;51.520;6.818;2022-08-21T01:21:53;10.23;;;5.90;;
4527;SDS011;62320;51.520;6.818;2022-08-21T01:26:55;6.05;;;5.13;;
4527;SDS011;62320;51.520;6.818;2022-08-21T01:31:57;7.40;;;5.55;;
4527;SDS011;62320;51.520;6.818;2022-08-21T01:37:00;11.07;;;6.07;;
4527;SDS011;62320;51.520;6.818;2022-08-21T01:42:02;8.18;;;5.90;;
4527;SDS011;62320;51.520;6.818;2022-08-21T01:47:05;9.63;;;5.72;;
4527;SDS011;62320;51.520;6.818;2022-08-21T01:52:08;9.35;;;5.60;;
4527;SDS011;62320;51.520;6.818;2022-08-21T01:57:10;7.80;;;5.38;;
4527;SDS011;62320;51.520;6.818;2022-08-21T02:02:13;8.80;;;5.63;;
4527;SDS011;62320;51.520;6.818;2022-08-21T02:07:14;6.57;;;5.63;;
4527;SDS011;62320;51.520;6.818;2022-08-21T02:12:16;9.05;;;6.07;;
4527;SDS011;62320;51.520;6.818;2022-08-21T02:17:17;9.32;;;5.88;;
4527;SDS011;62320;51.520;6.818;2022-08-21T02:22:19;13.75;;;6.88;;
4527;SDS011;62320;51.520;6.818;2022-08-21T02:27:24;8.48;;;5.85;;
4527;SDS011;62320;51.520;6.818;2022-08-21T02:32:27;8.45;;;5.93;;
4527;SDS011;62320;51.520;6.818;2022-08-21T02:37:29;8.98;;;6.18;;
4527;SDS011;62320;51.520;6.818;2022-08-21T02:42:30;11.88;;;6.45;;
4527;SDS011;62320;51.520;6.818;2022-08-21T02:47:32;8.38;;;5.57;;
4527;SDS011;62320;51.520;6.818;2022-08-21T02:52:33;10.13;;;5.50;;
4527;SDS011;62320;51.520;6.818;2022-08-21T02:57:35;11.05;;;6.03;;
4527;SDS011;62320;51.520;6.818;2022-08-21T03:02:37;10.50;;;5.55;;
4527;SDS011;62320;51.520;6.818;2022-08-21T03:07:38;7.95;;;5.72;;
4527;SDS011;62320;51.520;6.818;2022-08-21T03:12:40;8.98;;;5.50;;
4527;SDS011;62320;51.520;6.818;2022-08-21T03:17:42;7.85;;;5.80;;
4527;SDS011;62320;51.520;6.818;2022-08-21T03:22:44;8.82;;;5.78;;
4527;SDS011;62320;51.520;6.818;2022-08-21T03:27:53;8.13;;;6.05;;
4527;SDS011;62320;51.520;6.818;2022-08-21T03:32:59;10.23;;;6.68;;
4527;SDS011;62320;51.520;6.818;2022-08-21T03:38:01;10.43;;;7.38;;
4527;SDS011;62320;51.520;6.818;2022-08-21T03:43:02;10.65;;;6.85;;
4527;SDS011;62320;51.520;6.818;2022-08-21T03:48:05;11.07;;;7.78;;
4527;SDS011;62320;51.520;6.818;2022-08-21T03:53:08;10.45;;;7.43;;
4527;SDS011;62320;51.520;6.818;2022-08-21T03:58:18;13.48;;;7.93;;
4527;SDS011;62320;51.520;6.818;2022-08-21T04:03:22;10.70;;;7.30;;
4527;SDS011;62320;51.520;6.818;2022-08-21T04:08:24;11.35;;;8.02;;
4527;SDS011;62320;51.520;6.818;2022-08-21T04:13:25;12.32;;;8.00;;
4527;SDS011;62320;51.520;6.818;2022-08-21T04:18:29;11.40;;;8.15;;
4527;SDS011;62320;51.520;6.818;2022-08-21T04:23:30;12.75;;;8.68;;
4527;SDS011;62320;51.520;6.818;2022-08-21T04:28:32;11.50;;;8.45;;
4527;SDS011;62320;51.520;6.818;2022-08-21T04:33:33;9.65;;;8.05;;
4527;SDS011;62320;51.520;6.818;2022-08-21T04:38:35;15.00;;;8.95;;
4527;SDS011;62320;51.520;6.818;2022-08-21T04:43:38;13.07;;;8.77;;
4527;SDS011;62320;51.520;6.818;2022-08-21T04:48:40;13.57;;;9.35;;
4527;SDS011;62320;51.520;6.818;2022-08-21T04:59:04;15.45;;;9.90;;
4527;SDS011;62320;51.520;6.818;2022-08-21T05:04:12;15.00;;;10.07;;
4527;SDS011;62320;51.520;6.818;2022-08-21T05:09:17;17.27;;;11.32;;
4527;SDS011;62320;51.520;6.818;2022-08-21T05:14:20;16.10;;;9.88;;
4527;SDS011;62320;51.520;6.818;2022-08-21T05:19:21;14.32;;;10.52;;
4527;SDS011;62320;51.520;6.818;2022-08-21T05:24:24;13.80;;;10.10;;
4527;SDS011;62320;51.520;6.818;2022-08-21T05:29:25;15.02;;;10.52;;
4527;SDS011;62320;51.520;6.818;2022-08-21T05:34:27;18.13;;;11.68;;
4527;SDS011;62320;51.520;6.818;2022-08-21T05:39:28;18.85;;;11.60;;
4527;SDS011;62320;51.520;6.818;2022-08-21T05:44:50;17.48;;;11.27;;
4527;SDS011;62320;51.520;6.818;2022-08-21T05:49:52;15.63;;;11.68;;
4527;SDS011;62320;51.520;6.818;2022-08-21T05:54:53;15.75;;;11.60;;
4527;SDS011;62320;51.520;6.818;2022-08-21T05:59:55;17.25;;;12.10;;
4527;SDS011;62320;51.520;6.818;2022-08-21T06:04:57;18.77;;;11.45;;
4527;SDS011;62320;51.520;6.818;2022-08-21T06:09:58;16.88;;;11.90;;
4527;SDS011;62320;51.520;6.818;2022-08-21T06:15:00;14.15;;;10.75;;
4527;SDS011;62320;51.520;6.818;2022-08-21T06:20:02;17.17;;;10.50;;
4527;SDS011;62320;51.520;6.818;2022-08-21T06:25:05;12.73;;;10.27;;
4527;SDS011;62320;51.520;6.818;2022-08-21T06:30:07;13.77;;;10.52;;
4527;SDS011;62320;51.520;6.818;2022-08-21T06:35:09;17.23;;;10.40;;
4527;SDS011;62320;51.520;6.818;2022-08-21T06:40:11;17.13;;;9.55;;
4527;SDS011;62320;51.520;6.818;2022-08-21T06:45:13;14.02;;;8.73;;
4527;SDS011;62320;51.520;6.818;2022-08-21T06:50:14;13.07;;;7.07;;
4527;SDS011;62320;51.520;6.818;2022-08-21T06:55:17;11.65;;;6.88;;
4527;SDS011;62320;51.520;6.818;2022-08-21T07:00:26;12.63;;;6.53;;
4527;SDS011;62320;51.520;6.818;2022-08-21T07:05:28;14.73;;;6.63;;
4527;SDS011;62320;51.520;6.818;2022-08-21T07:10:31;10.50;;;5.85;;
4527;SDS011;62320;51.520;6.818;2022-08-21T07:15:32;8.70;;;5.43;;
4527;SDS011;62320;51.520;6.818;2022-08-21T07:20:34;8.80;;;4.90;;
4527;SDS011;62320;51.520;6.818;2022-08-21T07:25:35;10.70;;;5.50;;
4527;SDS011;62320;51.520;6.818;2022-08-21T07:30:37;11.57;;;5.03;;
4527;SDS011;62320;51.520;6.818;2022-08-21T07:35:39;10.73;;;3.50;;
4527;SDS011;62320;51.520;6.818;2022-08-21T07:40:40;7.00;;;3.33;;
4527;SDS011;62320;51.520;6.818;2022-08-21T07:45:42;6.55;;;2.92;;
4527;SDS011;62320;51.520;6.818;2022-08-21T07:50:44;4.90;;;2.08;;
4527;SDS011;62320;51.520;6.818;2022-08-21T07:55:45;6.68;;;1.70;;
4527;SDS011;62320;51.520;6.818;2022-08-21T08:00:47;4.75;;;1.95;;
4527;SDS011;62320;51.520;6.818;2022-08-21T08:05:48;6.95;;;2.63;;
4527;SDS011;62320;51.520;6.818;2022-08-21T08:10:50;6.75;;;2.22;;
4527;SDS011;62320;51.520;6.818;2022-08-21T08:15:52;5.53;;;2.42;;
4527;SDS011;62320;51.520;6.818;2022-08-21T08:20:54;5.82;;;2.17;;
4527;SDS011;62320;51.520;6.818;2022-08-21T08:25:56;8.43;;;2.60;;
4527;SDS011;62320;51.520;6.818;2022-08-21T08:30:58;4.22;;;1.40;;
4527;SDS011;62320;51.520;6.818;2022-08-21T08:36:01;3.92;;;1.83;;
4527;SDS011;62320;51.520;6.818;2022-08-21T08:46:15;4.18;;;1.83;;
4527;SDS011;62320;51.520;6.818;2022-08-21T08:51:24;3.03;;;1.23;;
4527;SDS011;62320;51.520;6.818;2022-08-21T08:56:34;5.30;;;1.70;;
4527;SDS011;62320;51.520;6.818;2022-08-21T09:01:36;7.78;;;2.20;;
4527;SDS011;62320;51.520;6.818;2022-08-21T09:06:44;7.45;;;1.60;;
4527;SDS011;62320;51.520;6.818;2022-08-21T09:27:49;5.93;;;1.38;;
4527;SDS011;62320;51.520;6.818;2022-08-21T09:32:51;3.88;;;1.38;;
4527;SDS011;62320;51.520;6.818;2022-08-21T09:38:01;2.60;;;1.30;;
4527;SDS011;62320;51.520;6.818;2022-08-21T09:48:17;4.70;;;1.60;;
4527;SDS011;62320;51.520;6.818;2022-08-21T09:53:27;4.15;;;1.30;;
4527;SDS011;62320;51.520;6.818;2022-08-21T09:58:36;3.63;;;1.52;;
4527;SDS011;62320;51.520;6.818;2022-08-21T10:03:42;4.32;;;1.80;;
4527;SDS011;62320;51.520;6.818;2022-08-21T10:08:44;2.92;;;1.30;;
4527;SDS011;62320;51.520;6.818;2022-08-21T10:30:15;1.63;;;1.00;;
4527;SDS011;62320;51.520;6.818;2022-08-21T10:35:26;3.67;;;1.15;;
4527;SDS011;62320;51.520;6.818;2022-08-21T10:51:21;2.58;;;1.30;;
4527;SDS011;62320;51.520;6.818;2022-08-21T10:56:40;2.65;;;1.25;;
4527;SDS011;62320;51.520;6.818;2022-08-21T11:07:07;3.75;;;1.50;;
4527;SDS011;62320;51.520;6.818;2022-08-21T11:17:39;4.35;;;1.20;;
4527;SDS011;62320;51.520;6.818;2022-08-21T11:22:48;3.28;;;1.05;;
4527;SDS011;62320;51.520;6.818;2022-08-21T11:38:46;2.70;;;1.13;;
4527;SDS011;62320;51.520;6.818;2022-08-21T11:44:02;3.05;;;1.45;;
4527;SDS011;62320;51.520;6.818;2022-08-21T11:54:26;2.60;;;1.20;;
4527;SDS011;62320;51.520;6.818;2022-08-21T12:05:23;5.30;;;1.20;;
4527;SDS011;62320;51.520;6.818;2022-08-21T12:10:33;2.92;;;1.00;;
4527;SDS011;62320;51.520;6.818;2022-08-21T12:15:37;1.98;;;1.08;;
4527;SDS011;62320;51.520;6.818;2022-08-21T12:20:41;3.53;;;1.30;;
4527;SDS011;62320;51.520;6.818;2022-08-21T12:26:10;4.00;;;1.20;;
4527;SDS011;62320;51.520;6.818;2022-08-21T12:31:22;5.45;;;1.40;;
4527;SDS011;62320;51.520;6.818;2022-08-21T12:36:30;4.10;;;0.85;;
4527;SDS011;62320;51.520;6.818;2022-08-21T12:52:30;4.60;;;1.10;;
4527;SDS011;62320;51.520;6.818;2022-08-21T12:57:40;2.25;;;0.90;;
4527;SDS011;62320;51.520;6.818;2022-08-21T13:02:47;3.75;;;1.40;;
4527;SDS011;62320;51.520;6.818;2022-08-21T13:07:50;2.80;;;1.20;;
4527;SDS011;62320;51.520;6.818;2022-08-21T13:13:03;3.17;;;1.10;;
4527;SDS011;62320;51.520;6.818;2022-08-21T13:18:29;5.20;;;1.30;;
4527;SDS011;62320;51.520;6.818;2022-08-21T13:23:34;6.75;;;1.75;;
4527;SDS011;62320;51.520;6.818;2022-08-21T13:28:35;5.45;;;1.73;;
4527;SDS011;62320;51.520;6.818;2022-08-21T13:33:38;1.95;;;1.00;;
4527;SDS011;62320;51.520;6.818;2022-08-21T13:38:42;3.25;;;1.10;;
4527;SDS011;62320;51.520;6.818;2022-08-21T13:43:47;3.53;;;1.63;;
4527;SDS011;62320;51.520;6.818;2022-08-21T13:48:58;2.75;;;1.00;;
4527;SDS011;62320;51.520;6.818;2022-08-21T13:54:01;3.90;;;1.10;;
4527;SDS011;62320;51.520;6.818;2022-08-21T13:59:33;4.18;;;1.02;;
4527;SDS011;62320;51.520;6.818;2022-08-21T14:04:38;2.92;;;1.02;;
4527;SDS011;62320;51.520;6.818;2022-08-21T14:09:53;3.28;;;1.10;;
4527;SDS011;62320;51.520;6.818;2022-08-21T14:14:56;4.38;;;1.33;;
4527;SDS011;62320;51.520;6.818;2022-08-21T14:19:59;1.83;;;1.08;;
4527;SDS011;62320;51.520;6.818;2022-08-21T14:25:02;2.42;;;1.20;;
4527;SDS011;62320;51.520;6.818;2022-08-21T14:30:17;4.45;;;1.20;;
4527;SDS011;62320;51.520;6.818;2022-08-21T14:35:19;3.30;;;0.90;;
4527;SDS011;62320;51.520;6.818;2022-08-21T14:40:24;2.38;;;0.90;;
4527;SDS011;62320;51.520;6.818;2022-08-21T14:45:27;3.50;;;1.05;;
4527;SDS011;62320;51.520;6.818;2022-08-21T14:50:30;5.88;;;1.23;;
4527;SDS011;62320;51.520;6.818;2022-08-21T14:55:31;1.88;;;1.10;;
4527;SDS011;62320;51.520;6.818;2022-08-21T15:00:56;7.65;;;1.50;;
4527;SDS011;62320;51.520;6.818;2022-08-21T15:05:59;2.38;;;1.20;;
4527;SDS011;62320;51.520;6.818;2022-08-21T15:11:01;2.80;;;1.10;;
4527;SDS011;62320;51.520;6.818;2022-08-21T15:16:14;6.85;;;1.00;;
4527;SDS011;62320;51.520;6.818;2022-08-21T15:21:16;5.07;;;1.30;;
4527;SDS011;62320;51.520;6.818;2022-08-21T15:26:17;4.35;;;1.00;;
4527;SDS011;62320;51.520;6.818;2022-08-21T15:31:20;4.80;;;1.20;;
4527;SDS011;62320;51.520;6.818;2022-08-21T15:36:21;5.22;;;1.30;;
4527;SDS011;62320;51.520;6.818;2022-08-21T15:41:23;2.92;;;1.00;;
4527;SDS011;62320;51.520;6.818;2022-08-21T15:46:24;7.00;;;1.20;;
4527;SDS011;62320;51.520;6.818;2022-08-21T15:51:26;2.30;;;0.93;;
4527;SDS011;62320;51.520;6.818;2022-08-21T15:56:32;4.03;;;0.90;;
4527;SDS011;62320;51.520;6.818;2022-08-21T16:01:36;2.80;;;1.00;;
4527;SDS011;62320;51.520;6.818;2022-08-21T16:06:45;2.78;;;0.90;;
4527;SDS011;62320;51.520;6.818;2022-08-21T16:16:57;1.55;;;0.90;;
4527;SDS011;62320;51.520;6.818;2022-08-21T16:21:59;3.55;;;1.10;;
4527;SDS011;62320;51.520;6.818;2022-08-21T16:27:01;2.15;;;1.10;;
4527;SDS011;62320;51.520;6.818;2022-08-21T16:32:08;2.70;;;0.82;;
4527;SDS011;62320;51.520;6.818;2022-08-21T16:37:10;3.22;;;1.17;;
4527;SDS011;62320;51.520;6.818;2022-08-21T16:42:12;3.17;;;1.27;;
4527;SDS011;62320;51.520;6.818;2022-08-21T16:47:22;3.42;;;1.50;;
4527;SDS011;62320;51.520;6.818;2022-08-21T16:52:27;3.78;;;1.60;;
4527;SDS011;62320;51.520;6.818;2022-08-21T16:57:29;2.58;;;1.10;;
4527;SDS011;62320;51.520;6.818;2022-08-21T17:02:32;3.88;;;1.90;;
4527;SDS011;62320;51.520;6.818;2022-08-21T17:07:37;5.35;;;1.90;;
4527;SDS011;62320;51.520;6.818;2022-08-21T17:12:39;5.57;;;2.10;;
4527;SDS011;62320;51.520;6.818;2022-08-21T17:17:43;5.18;;;1.95;;
4527;SDS011;62320;51.520;6.818;2022-08-21T17:22:45;3.85;;;2.47;;
4527;SDS011;62320;51.520;6.818;2022-08-21T17:27:47;5.57;;;2.10;;
4527;SDS011;62320;51.520;6.818;2022-08-21T17:32:50;3.78;;;2.35;;
4527;SDS011;62320;51.520;6.818;2022-08-21T17:37:54;6.18;;;2.53;;
4527;SDS011;62320;51.520;6.818;2022-08-21T17:42:57;6.68;;;2.47;;
4527;SDS011;62320;51.520;6.818;2022-08-21T17:47:59;5.82;;;3.05;;
4527;SDS011;62320;51.520;6.818;2022-08-21T17:53:00;3.42;;;2.55;;
4527;SDS011;62320;51.520;6.818;2022-08-21T17:58:02;3.03;;;1.90;;
4527;SDS011;62320;51.520;6.818;2022-08-21T18:03:05;3.75;;;1.92;;
4527;SDS011;62320;51.520;6.818;2022-08-21T18:08:15;3.42;;;2.25;;
4527;SDS011;62320;51.520;6.818;2022-08-21T18:13:24;3.30;;;2.28;;
4527;SDS011;62320;51.520;6.818;2022-08-21T18:18:31;3.90;;;2.10;;
4527;SDS011;62320;51.520;6.818;2022-08-21T18:23:36;5.05;;;2.70;;
4527;SDS011;62320;51.520;6.818;2022-08-21T18:28:44;3.95;;;1.75;;
4527;SDS011;62320;51.520;6.818;2022-08-21T18:33:46;5.05;;;1.80;;
4527;SDS011;62320;51.520;6.818;2022-08-21T18:38:58;3.88;;;1.80;;
4527;SDS011;62320;51.520;6.818;2022-08-21T18:44:21;3.95;;;2.00;;
4527;SDS011;62320;51.520;6.818;2022-08-21T18:49:25;4.68;;;1.95;;
4527;SDS011;62320;51.520;6.818;2022-08-21T18:54:27;3.88;;;1.92;;
4527;SDS011;62320;51.520;6.818;2022-08-21T18:59:29;3.13;;;1.60;;
4527;SDS011;62320;51.520;6.818;2022-08-21T19:04:31;5.10;;;2.30;;
4527;SDS011;62320;51.520;6.818;2022-08-21T19:09:45;5.28;;;2.03;;
4527;SDS011;62320;51.520;6.818;2022-08-21T19:15:07;7.90;;;1.90;;
4527;SDS011;62320;51.520;6.818;2022-08-21T19:20:17;2.70;;;1.80;;
4527;SDS011;62320;51.520;6.818;2022-08-21T19:25:26;5.78;;;2.10;;
4527;SDS011;62320;51.520;6.818;2022-08-21T19:30:38;4.70;;;1.90;;
4527;SDS011;62320;51.520;6.818;2022-08-21T19:35:45;4.72;;;1.88;;
4527;SDS011;62320;51.520;6.818;2022-08-21T19:40:52;5.00;;;2.00;;
4527;SDS011;62320;51.520;6.818;2022-08-21T19:45:55;4.18;;;1.80;;
4527;SDS011;62320;51.520;6.818;2022-08-21T19:50:57;5.25;;;1.88;;
4527;SDS011;62320;51.520;6.818;2022-08-21T19:55:59;6.25;;;1.92;;
4527;SDS011;62320;51.520;6.818;2022-08-21T20:01:01;5.63;;;2.00;;
4527;SDS011;62320;51.520;6.818;2022-08-21T20:06:11;6.25;;;1.80;;
4527;SDS011;62320;51.520;6.818;2022-08-21T20:11:16;5.25;;;2.00;;
4527;SDS011;62320;51.520;6.818;2022-08-21T20:16:22;5.75;;;2.35;;
4527;SDS011;62320;51.520;6.818;2022-08-21T20:21:26;7.28;;;2.60;;
4527;SDS011;62320;51.520;6.818;2022-08-21T20:26:27;3.10;;;1.95;;
4527;SDS011;62320;51.520;6.818;2022-08-21T20:31:29;4.80;;;2.05;;
4527;SDS011;62320;51.520;6.818;2022-08-21T20:36:34;5.28;;;2.15;;
4527;SDS011;62320;51.520;6.818;2022-08-21T20:41:36;4.70;;;2.20;;
4527;SDS011;62320;51.520;6.818;2022-08-21T20:46:38;3.75;;;1.90;;
4527;SDS011;62320;51.520;6.818;2022-08-21T20:51:43;6.10;;;1.95;;
4527;SDS011;62320;51.520;6.818;2022-08-21T21:07:20;4.57;;;1.90;;
4527;SDS011;62320;51.520;6.818;2022-08-21T21:12:30;5.50;;;2.07;;
4527;SDS011;62320;51.520;6.818;2022-08-21T21:17:46;4.28;;;1.88;;
4527;SDS011;62320;51.520;6.818;2022-08-21T21:23:27;4.72;;;2.13;;
4527;SDS011;62320;51.520;6.818;2022-08-21T21:34:03;3.85;;;2.03;;
4527;SDS011;62320;51.520;6.818;2022-08-21T21:39:07;3.75;;;2.20;;
4527;SDS011;62320;51.520;6.818;2022-08-21T21:44:24;5.80;;;2.10;;
4527;SDS011;62320;51.520;6.818;2022-08-21T21:59:56;5.13;;;1.88;;
4527;SDS011;62320;51.520;6.818;2022-08-21T22:10:26;6.18;;;2.28;;
4527;SDS011;62320;51.520;6.818;2022-08-21T22:15:43;4.03;;;2.33;;
4527;SDS011;62320;51.520;6.818;2022-08-21T22:20:55;7.75;;;2.10;;
4527;SDS011;62320;51.520;6.818;2022-08-21T22:26:10;4.70;;;2.50;;
4527;SDS011;62320;51.520;6.818;2022-08-21T22:31:21;5.93;;;2.28;;
4527;SDS011;62320;51.520;6.818;2022-08-21T22:36:23;3.75;;;2.08;;
4527;SDS011;62320;51.520;6.818;2022-08-21T22:41:28;4.93;;;2.22;;
4527;SDS011;62320;51.520;6.818;2022-08-21T22:46:47;4.43;;;2.50;;
4527;SDS011;62320;51.520;6.818;2022-08-21T22:52:05;5.47;;;2.28;;
4527;SDS011;62320;51.520;6.818;2022-08-21T22:57:30;5.00;;;2.50;;
4527;SDS011;62320;51.520;6.818;2022-08-21T23:02:40;5.25;;;2.60;;
4527;SDS011;62320;51.520;6.818;2022-08-21T23:08:31;5.63;;;2.63;;
4527;SDS011;62320;51.520;6.818;2022-08-21T23:13:45;7.22;;;3.00;;
4527;SDS011;62320;51.520;6.818;2022-08-21T23:19:09;6.45;;;2.40;;
4527;SDS011;62320;51.520;6.818;2022-08-21T23:24:45;4.70;;;2.65;;
4527;SDS011;62320;51.520;6.818;2022-08-21T23:30:14;7.75;;;2.75;;
4527;SDS011;62320;51.520;6.818;2022-08-21T23:41:44;6.07;;;2.60;;
